createdAt,value
2018-03-24T00:02:20.719Z,1.70
2018-03-24T00:04:49.182Z,1.80
2018-03-24T00:10:17.938Z,1.60
2018-03-24T00:12:46.287Z,1.27
2018-03-24T00:15:14.635Z,1.70
2018-03-24T00:17:43.000Z,1.40
2018-03-24T00:20:11.967Z,1.80
2018-03-24T00:22:40.296Z,1.40
2018-03-24T00:25:08.667Z,1.47
2018-03-24T00:27:37.891Z,1.37
2018-03-24T00:30:11.505Z,1.53
2018-03-24T00:32:39.829Z,1.43
2018-03-24T00:35:08.191Z,1.20
2018-03-24T00:37:36.513Z,1.20
2018-03-24T00:40:04.882Z,1.50
2018-03-24T00:42:37.706Z,1.10
2018-03-24T00:45:06.059Z,1.23
2018-03-24T00:47:34.799Z,1.43
2018-03-24T00:50:04.041Z,1.53
2018-03-24T00:52:33.382Z,1.57
2018-03-24T00:55:02.563Z,1.60
2018-03-24T00:57:30.910Z,1.37
2018-03-24T00:59:59.301Z,1.60
2018-03-24T01:02:27.601Z,1.33
2018-03-24T01:04:55.926Z,1.70
2018-03-24T01:07:24.262Z,1.40
2018-03-24T01:09:53.371Z,1.20
2018-03-24T01:12:22.709Z,1.23
2018-03-24T01:14:52.778Z,1.47
2018-03-24T01:17:21.849Z,1.57
2018-03-24T01:19:50.611Z,1.13
2018-03-24T01:22:18.967Z,1.30
2018-03-24T01:24:47.300Z,1.40
2018-03-24T01:27:27.223Z,1.37
2018-03-24T01:29:55.583Z,1.20
2018-03-24T01:32:23.903Z,1.30
2018-03-24T01:34:52.234Z,1.30
2018-03-24T01:37:20.599Z,1.30
2018-03-24T01:39:48.971Z,1.20
2018-03-24T01:42:17.308Z,1.40
2018-03-24T01:44:46.094Z,1.23
2018-03-24T01:47:14.466Z,1.17
2018-03-24T01:49:42.793Z,1.10
2018-03-24T01:52:11.111Z,1.47
2018-03-24T01:54:39.461Z,1.50
2018-03-24T01:57:08.591Z,1.20
2018-03-24T01:59:37.810Z,1.57
2018-03-24T02:02:07.041Z,1.40
2018-03-24T02:04:35.459Z,1.30
2018-03-24T02:07:04.506Z,1.60
2018-03-24T02:09:33.808Z,1.40
2018-03-24T02:12:02.198Z,1.40
2018-03-24T02:14:30.527Z,1.37
2018-03-24T02:16:59.779Z,1.87
2018-03-24T02:19:28.099Z,1.23
2018-03-24T02:21:56.563Z,1.50
2018-03-24T02:24:24.879Z,1.70
2018-03-24T02:26:53.534Z,1.40
2018-03-24T02:29:22.726Z,1.37
2018-03-24T02:31:51.082Z,1.20
2018-03-24T02:34:19.408Z,1.33
2018-03-24T02:36:48.478Z,1.47
2018-03-24T02:39:16.788Z,1.47
2018-03-24T02:41:45.858Z,1.30
2018-03-24T02:44:14.315Z,1.20
2018-03-24T02:46:42.911Z,1.30
2018-03-24T02:49:11.260Z,1.50
2018-03-24T02:51:40.934Z,1.30
2018-03-24T02:54:10.480Z,1.40
2018-03-24T02:56:39.254Z,1.27
2018-03-24T02:59:08.493Z,1.60
2018-03-24T03:02:02.441Z,1.30
2018-03-24T03:04:31.199Z,1.87
2018-03-24T03:07:00.642Z,1.80
2018-03-24T03:09:28.975Z,1.50
2018-03-24T03:11:57.366Z,1.50
2018-03-24T03:14:25.701Z,1.67
2018-03-24T03:16:54.041Z,1.50
2018-03-24T03:19:22.378Z,1.20
2018-03-24T03:21:54.250Z,1.50
2018-03-24T03:24:23.391Z,1.23
2018-03-24T03:26:52.051Z,1.50
2018-03-24T03:29:21.170Z,1.10
2018-03-24T03:31:51.902Z,1.37
2018-03-24T03:34:20.828Z,1.50
2018-03-24T03:36:49.155Z,1.67
2018-03-24T03:39:18.642Z,1.03
2018-03-24T03:41:46.958Z,1.33
2018-03-24T03:44:15.291Z,1.47
2018-03-24T03:46:43.614Z,1.60
2018-03-24T03:49:12.743Z,1.77
2018-03-24T03:51:41.082Z,1.50
2018-03-24T03:54:09.895Z,1.57
2018-03-24T03:56:39.046Z,1.27
2018-03-24T03:59:07.374Z,1.33
2018-03-24T04:01:35.708Z,1.40
2018-03-24T04:04:04.042Z,1.53
2018-03-24T04:06:32.363Z,1.70
2018-03-24T04:09:01.634Z,1.30
2018-03-24T04:11:30.774Z,1.50
2018-03-24T04:14:02.784Z,1.50
2018-03-24T04:16:31.094Z,1.57
2018-03-24T04:18:59.424Z,1.50
2018-03-24T04:21:27.751Z,1.77
2018-03-24T04:23:56.999Z,1.50
2018-03-24T04:26:26.988Z,1.20
2018-03-24T04:28:55.358Z,1.13
2018-03-24T04:31:24.442Z,1.80
2018-03-24T04:33:52.778Z,1.80
2018-03-24T04:36:21.107Z,1.37
2018-03-24T04:38:50.022Z,1.37
2018-03-24T04:41:19.546Z,1.30
2018-03-24T04:43:48.814Z,1.40
2018-03-24T04:46:17.660Z,1.60
2018-03-24T04:48:46.038Z,1.40
2018-03-24T04:51:14.351Z,1.30
2018-03-24T04:53:43.536Z,1.40
2018-03-24T04:56:11.865Z,1.43
2018-03-24T04:58:40.218Z,1.83
2018-03-24T05:01:08.864Z,1.37
2018-03-24T05:03:38.735Z,1.50
2018-03-24T05:06:08.183Z,1.50
2018-03-24T05:08:37.401Z,1.50
2018-03-24T05:11:05.739Z,1.60
2018-03-24T05:13:34.106Z,1.53
2018-03-24T05:16:03.718Z,1.60
2018-03-24T05:18:33.041Z,1.90
2018-03-24T05:21:02.163Z,1.57
2018-03-24T05:23:30.735Z,1.63
2018-03-24T05:25:59.875Z,1.50
2018-03-24T05:28:29.532Z,1.30
2018-03-24T05:30:58.830Z,1.83
2018-03-24T05:33:27.162Z,1.60
2018-03-24T05:35:55.571Z,1.60
2018-03-24T05:38:23.937Z,1.70
2018-03-24T05:40:52.390Z,1.70
2018-03-24T05:43:21.154Z,1.90
2018-03-24T05:45:49.485Z,1.53
2018-03-24T05:48:18.459Z,1.77
2018-03-24T05:50:54.093Z,1.83
2018-03-24T05:53:22.411Z,1.73
2018-03-24T05:55:50.771Z,1.53
2018-03-24T05:58:19.430Z,1.60
2018-03-24T06:00:48.695Z,1.90
2018-03-24T06:03:17.776Z,1.40
2018-03-24T06:05:46.123Z,1.77
2018-03-24T06:08:14.531Z,2.00
2018-03-24T06:10:43.433Z,1.47
2018-03-24T06:13:21.843Z,2.00
2018-03-24T06:15:50.963Z,1.70
2018-03-24T06:18:19.273Z,1.77
2018-03-24T06:20:47.627Z,1.60
2018-03-24T06:23:15.958Z,1.50
2018-03-24T06:25:44.321Z,1.60
2018-03-24T06:28:13.660Z,1.90
2018-03-24T06:30:43.499Z,1.77
2018-03-24T06:33:12.767Z,1.77
2018-03-24T06:35:43.175Z,2.17
2018-03-24T06:38:12.448Z,2.00
2018-03-24T06:40:40.853Z,2.10
2018-03-24T06:43:11.911Z,1.77
2018-03-24T06:45:40.226Z,2.30
2018-03-24T06:48:08.658Z,2.23
2018-03-24T06:50:37.052Z,1.90
2018-03-24T06:53:05.399Z,2.07
2018-03-24T06:55:34.465Z,2.17
2018-03-24T06:58:02.810Z,1.80
2018-03-24T07:00:32.603Z,2.57
2018-03-24T07:03:00.917Z,2.40
2018-03-24T07:05:29.626Z,2.73
2018-03-24T07:07:58.519Z,3.40
2018-03-24T07:10:26.859Z,2.80
2018-03-24T07:12:55.186Z,2.83
2018-03-24T07:15:23.542Z,2.77
2018-03-24T07:17:52.811Z,3.03
2018-03-24T07:20:21.115Z,3.10
2018-03-24T07:22:50.227Z,3.20
2018-03-24T07:25:18.963Z,2.90
2018-03-24T07:27:47.305Z,4.00
2018-03-24T07:30:16.398Z,3.37
2018-03-24T07:32:44.722Z,3.83
2018-03-24T07:41:33.568Z,2.80
2018-03-24T07:44:02.717Z,3.10
2018-03-24T07:46:31.947Z,3.90
2018-03-24T07:49:00.801Z,2.80
2018-03-24T07:51:29.123Z,2.93
2018-03-24T07:53:57.474Z,3.27
2018-03-24T07:56:25.848Z,3.93
2018-03-24T07:58:54.608Z,3.97
2018-03-24T08:01:22.921Z,3.80
2018-03-24T08:04:05.439Z,4.80
2018-03-24T08:06:36.135Z,5.03
2018-03-24T08:09:06.338Z,5.17
2018-03-24T08:11:35.482Z,6.00
2018-03-24T08:14:03.836Z,5.67
2018-03-24T08:16:32.159Z,5.10
2018-03-24T08:19:01.222Z,4.63
2018-03-24T08:21:29.910Z,3.97
2018-03-24T08:23:59.427Z,4.33
2018-03-24T08:26:28.001Z,4.13
2018-03-24T08:28:56.659Z,3.77
2018-03-24T08:31:26.102Z,3.50
2018-03-24T08:33:54.456Z,3.40
2018-03-24T08:36:23.479Z,3.97
2018-03-24T08:38:51.830Z,3.40
2018-03-24T08:41:20.211Z,2.90
2018-03-24T08:43:48.626Z,3.03
2018-03-24T08:46:17.789Z,2.90
2018-03-24T08:48:46.900Z,3.20
2018-03-24T08:51:15.229Z,2.60
2018-03-24T08:53:43.622Z,3.10
2018-03-24T08:56:11.992Z,2.73
2018-03-24T08:58:41.153Z,2.50
2018-03-24T09:01:09.523Z,2.53
2018-03-24T09:03:38.152Z,2.87
2018-03-24T09:06:08.183Z,3.00
2018-03-24T09:08:36.581Z,2.27
2018-03-24T09:11:04.908Z,3.30
2018-03-24T09:13:33.271Z,2.43
2018-03-24T09:16:01.607Z,2.70
2018-03-24T09:18:30.549Z,2.70
2018-03-24T09:21:00.246Z,2.53
2018-03-24T09:23:28.601Z,2.90
2018-03-24T09:25:57.774Z,2.63
2018-03-24T09:28:26.112Z,2.40
2018-03-24T09:30:55.032Z,2.30
2018-03-24T09:33:24.174Z,2.43
2018-03-24T09:35:53.553Z,2.60
2018-03-24T09:38:21.882Z,2.30
2018-03-24T09:40:50.262Z,2.43
2018-03-24T09:43:19.758Z,1.97
2018-03-24T09:45:48.126Z,2.43
2018-03-24T09:48:17.370Z,1.80
2018-03-24T09:50:45.758Z,2.20
2018-03-24T09:53:14.651Z,2.30
2018-03-24T09:55:43.348Z,2.40
2018-03-24T09:58:13.268Z,2.30
2018-03-24T10:00:41.603Z,2.10
2018-03-24T10:03:10.967Z,2.00
2018-03-24T10:05:39.365Z,2.10
2018-03-24T10:08:08.583Z,2.10
2018-03-24T10:10:37.161Z,2.00
2018-03-24T10:13:06.288Z,2.03
2018-03-24T10:15:34.735Z,1.70
2018-03-24T10:18:03.059Z,2.10
2018-03-24T10:23:56.833Z,1.83
2018-03-24T10:26:25.855Z,2.10
2018-03-24T10:28:55.817Z,2.20
2018-03-24T10:31:24.416Z,1.70
2018-03-24T10:33:59.471Z,2.27
2018-03-24T10:36:27.883Z,1.90
2018-03-24T10:38:56.194Z,2.10
2018-03-24T10:41:24.905Z,2.03
2018-03-24T10:43:55.063Z,2.17
2018-03-24T10:46:23.433Z,1.90
2018-03-24T10:48:52.758Z,1.80
2018-03-24T10:51:21.874Z,1.87
2018-03-24T10:53:51.074Z,2.20
2018-03-24T10:56:20.173Z,2.00
2018-03-24T10:58:48.828Z,1.90
2018-03-24T11:01:26.394Z,2.10
2018-03-24T11:03:55.959Z,2.10
2018-03-24T11:06:25.507Z,2.10
2018-03-24T11:08:53.821Z,1.93
2018-03-24T11:11:23.305Z,1.90
2018-03-24T11:13:52.343Z,1.63
2018-03-24T11:16:20.734Z,1.90
2018-03-24T11:18:49.840Z,1.70
2018-03-24T11:21:18.929Z,2.37
2018-03-24T11:23:47.554Z,1.80
2018-03-24T11:26:15.904Z,1.80
2018-03-24T11:28:44.213Z,2.00
2018-03-24T11:31:12.553Z,1.90
2018-03-24T11:33:41.945Z,2.00
2018-03-24T11:36:10.283Z,2.17
2018-03-24T11:38:38.603Z,2.10
2018-03-24T11:41:06.963Z,1.90
2018-03-24T11:43:35.310Z,1.93
2018-03-24T11:46:18.875Z,2.00
2018-03-24T11:48:47.218Z,1.80
2018-03-24T11:51:15.885Z,1.90
2018-03-24T11:53:47.022Z,1.80
2018-03-24T11:56:15.437Z,1.67
2018-03-24T11:58:44.546Z,1.70
2018-03-24T12:01:14.153Z,1.60
2018-03-24T12:03:42.813Z,1.73
2018-03-24T12:06:11.205Z,1.60
2018-03-24T12:08:40.473Z,1.70
2018-03-24T12:14:01.953Z,1.87
2018-03-24T12:16:30.680Z,1.70
2018-03-24T12:18:59.329Z,2.07
2018-03-24T12:21:27.629Z,2.13
2018-03-24T12:23:55.969Z,2.27
2018-03-24T12:26:24.290Z,1.70
2018-03-24T12:28:52.958Z,2.10
2018-03-24T12:31:21.283Z,2.00
2018-03-24T12:33:51.023Z,1.87
2018-03-24T12:36:19.869Z,2.00
2018-03-24T12:38:48.185Z,1.70
2018-03-24T12:41:17.310Z,1.63
2018-03-24T12:43:47.082Z,1.97
2018-03-24T12:46:15.428Z,1.90
2018-03-24T12:48:43.823Z,1.90
2018-03-24T12:51:12.138Z,1.80
2018-03-24T12:53:40.466Z,1.70
2018-03-24T12:56:10.617Z,1.80
2018-03-24T12:58:39.544Z,1.60
2018-03-24T13:01:09.955Z,2.03
2018-03-24T13:03:38.302Z,1.90
2018-03-24T13:06:06.886Z,1.80
2018-03-24T13:08:36.712Z,1.70
2018-03-24T13:11:05.086Z,1.83
2018-03-24T13:13:33.415Z,1.73
2018-03-24T13:16:19.895Z,2.10
2018-03-24T13:18:49.030Z,1.77
2018-03-24T13:21:17.354Z,1.50
2018-03-24T13:23:45.915Z,1.53
2018-03-24T13:26:14.696Z,2.03
2018-03-24T13:28:43.035Z,1.50
2018-03-24T13:31:12.115Z,1.47
2018-03-24T13:33:41.174Z,1.50
2018-03-24T13:36:09.486Z,1.40
2018-03-24T13:41:32.103Z,1.43
2018-03-24T13:44:00.512Z,1.27
2018-03-24T13:46:30.648Z,1.40
2018-03-24T13:48:59.030Z,1.50
2018-03-24T13:51:27.359Z,1.30
2018-03-24T13:53:55.803Z,1.60
2018-03-24T13:56:24.210Z,1.80
2018-03-24T13:58:52.606Z,1.63
2018-03-24T14:01:21.842Z,1.50
2018-03-24T14:03:50.243Z,1.80
2018-03-24T14:06:18.562Z,1.90
2018-03-24T14:08:47.219Z,1.40
2018-03-24T14:11:15.531Z,1.40
2018-03-24T14:13:43.970Z,1.53
2018-03-24T14:16:13.103Z,1.43
2018-03-24T14:18:41.485Z,1.90
2018-03-24T14:21:09.813Z,1.80
2018-03-24T14:23:38.211Z,1.37
2018-03-24T14:26:06.546Z,1.50
2018-03-24T14:28:34.925Z,1.57
2018-03-24T14:31:03.394Z,1.27
2018-03-24T14:33:32.684Z,1.40
2018-03-24T14:36:01.095Z,1.70
2018-03-24T14:38:29.515Z,1.47
2018-03-24T14:40:57.902Z,1.40
2018-03-24T14:43:27.159Z,1.70
2018-03-24T14:45:55.535Z,1.80
2018-03-24T14:48:24.724Z,1.30
2018-03-24T14:51:00.338Z,1.40
2018-03-24T14:53:28.650Z,1.37
2018-03-24T14:55:57.429Z,1.30
2018-03-24T14:58:26.785Z,1.40
2018-03-24T15:03:30.330Z,1.27
2018-03-24T15:05:59.402Z,1.43
2018-03-24T15:08:28.741Z,1.50
2018-03-24T15:10:57.075Z,1.50
2018-03-24T15:13:25.656Z,1.40
2018-03-24T15:15:54.035Z,1.60
2018-03-24T15:18:22.389Z,1.27
2018-03-24T15:20:51.469Z,1.20
2018-03-24T15:23:19.779Z,1.60
2018-03-24T15:25:50.804Z,1.40
2018-03-24T15:28:19.110Z,1.50
2018-03-24T15:30:59.960Z,1.50
2018-03-24T15:33:41.506Z,1.40
2018-03-24T15:36:31.420Z,1.70
2018-03-24T15:39:00.931Z,1.60
2018-03-24T15:41:29.302Z,1.27
2018-03-24T15:43:58.438Z,1.43
2018-03-24T15:46:27.657Z,1.40
2018-03-24T15:48:56.950Z,1.17
2018-03-24T15:51:25.421Z,1.40
2018-03-24T15:53:54.026Z,1.20
2018-03-24T15:56:23.292Z,1.30
2018-03-24T15:58:51.637Z,1.50
2018-03-24T16:01:20.013Z,1.10
2018-03-24T16:03:49.285Z,1.30
2018-03-24T16:06:18.014Z,1.20
2018-03-24T16:08:46.410Z,1.20
2018-03-24T16:11:15.034Z,1.30
2018-03-24T16:13:44.563Z,1.57
2018-03-24T16:16:13.799Z,1.47
2018-03-24T16:18:42.958Z,1.30
2018-03-24T16:21:12.980Z,1.37
2018-03-24T16:23:42.343Z,1.43
2018-03-24T16:26:10.683Z,1.30
2018-03-24T16:28:39.378Z,1.23
2018-03-24T16:31:08.077Z,1.33
2018-03-24T16:33:36.817Z,1.40
2018-03-24T16:36:05.187Z,1.60
2018-03-24T16:38:34.442Z,1.40
2018-03-24T16:41:03.503Z,1.30
2018-03-24T16:43:31.829Z,1.37
2018-03-24T16:46:00.715Z,1.33
2018-03-24T16:48:29.395Z,1.10
2018-03-24T16:50:58.345Z,1.43
2018-03-24T16:53:32.739Z,1.30
2018-03-24T16:56:01.066Z,1.30
2018-03-24T16:58:29.469Z,1.20
2018-03-24T17:00:58.067Z,1.50
2018-03-24T17:03:28.444Z,1.30
2018-03-24T17:05:56.792Z,1.30
2018-03-24T17:08:26.114Z,1.00
2018-03-24T17:10:54.494Z,1.20
2018-03-24T17:13:23.098Z,1.30
2018-03-24T17:15:52.102Z,1.20
2018-03-24T17:18:20.471Z,1.30
2018-03-24T17:20:48.812Z,1.23
2018-03-24T17:23:17.231Z,1.33
2018-03-24T17:25:46.083Z,1.40
2018-03-24T17:28:15.037Z,1.93
2018-03-24T17:30:44.059Z,1.50
2018-03-24T17:33:12.472Z,1.30
2018-03-24T17:35:40.746Z,1.40
2018-03-24T17:38:09.876Z,1.40
2018-03-24T17:40:39.118Z,1.40
2018-03-24T17:43:08.376Z,1.50
2018-03-24T17:45:36.764Z,1.47
2018-03-24T17:48:06.693Z,1.60
2018-03-24T17:50:35.016Z,1.70
2018-03-24T17:53:04.190Z,1.60
2018-03-24T17:55:32.986Z,1.53
2018-03-24T17:58:02.263Z,1.53
2018-03-24T18:00:31.310Z,1.70
2018-03-24T18:02:59.672Z,1.50
2018-03-24T18:05:29.239Z,1.27
2018-03-24T18:07:58.047Z,1.70
2018-03-24T18:10:27.274Z,1.30
2018-03-24T18:12:55.603Z,1.43
2018-03-24T18:15:24.707Z,1.50
2018-03-24T18:17:53.071Z,1.70
2018-03-24T18:20:22.891Z,1.40
2018-03-24T18:22:51.601Z,1.30
2018-03-24T18:25:20.721Z,1.60
2018-03-24T18:27:49.030Z,1.40
2018-03-24T18:30:17.695Z,1.40
2018-03-24T18:32:46.023Z,1.40
2018-03-24T18:35:14.423Z,1.67
2018-03-24T18:37:43.575Z,1.73
2018-03-24T18:40:12.018Z,1.50
2018-03-24T18:42:40.444Z,1.30
2018-03-24T18:45:08.832Z,1.43
2018-03-24T18:47:37.198Z,1.60
2018-03-24T18:50:05.616Z,1.90
2018-03-24T18:52:33.954Z,1.43
2018-03-24T18:55:03.081Z,1.47
2018-03-24T18:57:31.417Z,1.30
2018-03-24T19:00:00.678Z,1.50
2018-03-24T19:02:29.405Z,1.50
2018-03-24T19:04:57.975Z,1.67
2018-03-24T19:07:26.350Z,1.50
2018-03-24T19:09:54.675Z,1.40
2018-03-24T19:12:23.801Z,1.67
2018-03-24T19:14:52.919Z,1.70
2018-03-24T19:17:21.239Z,1.40
2018-03-24T19:19:49.691Z,1.60
2018-03-24T19:22:18.879Z,1.50
2018-03-24T19:24:47.243Z,1.47
2018-03-24T19:27:15.602Z,1.50
2018-03-24T19:29:44.037Z,1.77
2018-03-24T19:32:12.829Z,1.47
2018-03-24T19:34:41.401Z,1.50
2018-03-24T19:37:09.769Z,1.67
2018-03-24T19:39:38.260Z,1.63
2018-03-24T19:42:06.897Z,1.60
2018-03-24T19:44:36.958Z,1.60
2018-03-24T19:47:05.308Z,1.60
2018-03-24T19:49:33.690Z,1.70
2018-03-24T19:52:03.514Z,1.90
2018-03-24T19:54:32.657Z,2.10
2018-03-24T19:57:00.946Z,1.97
2018-03-24T19:59:29.553Z,1.57
2018-03-24T20:01:57.947Z,1.90
2018-03-24T20:04:26.586Z,1.60
2018-03-24T20:06:54.922Z,1.70
2018-03-24T20:09:24.022Z,2.27
2018-03-24T20:11:52.366Z,1.87
2018-03-24T20:14:20.711Z,2.10
2018-03-24T20:16:49.805Z,1.97
2018-03-24T20:19:18.165Z,2.00
2018-03-24T20:21:47.976Z,2.00
2018-03-24T20:24:17.139Z,1.83
2018-03-24T20:26:45.522Z,2.23
2018-03-24T20:29:13.872Z,1.80
2018-03-24T20:31:42.466Z,2.10
2018-03-24T20:34:11.747Z,1.87
2018-03-24T20:36:41.054Z,1.97
2018-03-24T20:39:09.486Z,1.70
2018-03-24T20:41:38.590Z,1.67
2018-03-24T20:44:07.221Z,1.67
2018-03-24T20:46:35.562Z,2.00
2018-03-24T20:49:04.113Z,1.70
2018-03-24T20:51:33.557Z,2.10
2018-03-24T20:54:02.154Z,2.30
2018-03-24T20:56:30.532Z,1.60
2018-03-24T20:58:59.828Z,2.20
2018-03-24T21:01:28.229Z,2.03
2018-03-24T21:03:58.303Z,1.90
2018-03-24T21:06:26.714Z,2.00
2018-03-24T21:08:55.046Z,2.17
2018-03-24T21:11:23.437Z,1.70
2018-03-24T21:13:51.790Z,1.87
2018-03-24T21:16:20.572Z,1.90
2018-03-24T21:18:48.969Z,1.83
2018-03-24T21:21:17.622Z,2.30
2018-03-24T21:23:45.949Z,2.47
2018-03-24T21:26:14.362Z,1.90
2018-03-24T21:28:43.580Z,1.97
2018-03-24T21:31:11.895Z,1.90
2018-03-24T21:33:40.252Z,2.03
2018-03-24T21:36:09.485Z,1.90
2018-03-24T21:38:38.243Z,1.97
2018-03-24T21:41:07.532Z,2.00
2018-03-24T21:43:35.965Z,2.10
2018-03-24T21:46:05.109Z,2.30
2018-03-24T21:48:33.442Z,2.30
2018-03-24T21:51:01.840Z,2.07
2018-03-24T21:53:30.758Z,2.00
2018-03-24T21:55:59.988Z,2.07
2018-03-24T21:58:28.754Z,1.93
2018-03-24T22:00:58.256Z,2.03
2018-03-24T22:03:26.616Z,2.47
2018-03-24T22:05:54.935Z,1.97
2018-03-24T22:08:23.316Z,1.90
2018-03-24T22:10:52.542Z,2.10
2018-03-24T22:13:20.850Z,2.03
2018-03-24T22:15:49.993Z,2.23
2018-03-24T22:18:18.335Z,1.93
2018-03-24T22:20:46.662Z,2.13
2018-03-24T22:23:15.874Z,2.10
2018-03-24T22:25:44.259Z,2.00
2018-03-24T22:28:13.354Z,2.20
2018-03-24T22:30:41.682Z,2.13
2018-03-24T22:33:10.010Z,2.20
2018-03-24T22:35:39.107Z,2.10
2018-03-24T22:38:07.409Z,2.20
2018-03-24T22:40:35.737Z,1.93
2018-03-24T22:43:04.158Z,1.60
2018-03-24T22:45:32.484Z,2.07
2018-03-24T22:48:00.936Z,2.13
2018-03-24T22:50:29.614Z,2.00
2018-03-24T22:52:58.328Z,2.07
2018-03-24T22:55:26.659Z,1.97
2018-03-24T22:57:56.873Z,2.07
2018-03-24T23:00:25.269Z,1.73
2018-03-24T23:02:54.015Z,2.40
2018-03-24T23:05:22.386Z,1.80
2018-03-24T23:07:50.703Z,1.80
2018-03-24T23:10:19.042Z,1.97
2018-03-24T23:12:47.358Z,2.13
2018-03-24T23:15:15.826Z,2.17
2018-03-24T23:17:44.210Z,1.70
2018-03-24T23:20:13.294Z,2.00
2018-03-24T23:22:41.728Z,2.43
2018-03-24T23:25:10.479Z,2.10
2018-03-24T23:27:39.706Z,1.73
2018-03-24T23:30:28.295Z,2.10
2018-03-24T23:32:56.665Z,1.90
2018-03-24T23:35:25.917Z,2.10
2018-03-24T23:37:54.697Z,1.83
2018-03-24T23:40:23.278Z,1.90
2018-03-24T23:42:52.156Z,2.00
2018-03-24T23:45:20.527Z,1.77
2018-03-24T23:47:48.881Z,2.10
2018-03-24T23:50:17.207Z,2.30
2018-03-24T23:52:45.912Z,2.00
2018-03-24T23:55:14.234Z,2.13
2018-03-24T23:57:43.337Z,1.97
